createdAt,value
2019-02-25T00:00:44.428Z,100800.69
2019-02-25T00:01:30.273Z,100802.30
2019-02-25T00:02:15.145Z,100802.05
2019-02-25T00:02:51.408Z,100806.87
2019-02-25T00:03:30.263Z,100803.62
2019-02-25T00:04:09.800Z,100805.17
2019-02-25T00:04:45.963Z,100797.46
2019-02-25T00:05:22.223Z,100808.22
2019-02-25T00:06:00.349Z,100799.58
2019-02-25T00:06:36.936Z,100800.06
2019-02-25T00:07:18.405Z,100805.44
2019-02-25T00:07:55.479Z,100803.28
2019-02-25T00:08:32.321Z,100807.52
2019-02-25T00:09:10.594Z,100807.55
2019-02-25T00:09:47.235Z,100811.34
2019-02-25T00:10:24.356Z,100800.83
2019-02-25T00:11:00.494Z,100800.83
2019-02-25T00:11:37.753Z,100811.84
2019-02-25T00:12:19.591Z,100809.48
2019-02-25T00:12:59.310Z,100813.52
2019-02-25T00:13:36.301Z,100818.16
2019-02-25T00:14:12.599Z,100818.16
2019-02-25T00:14:49.016Z,100825.70
2019-02-25T00:15:25.679Z,100825.70
2019-02-25T00:16:02.002Z,100816.09
2019-02-25T00:16:38.570Z,100816.09
2019-02-25T00:17:15.262Z,100812.91
2019-02-25T00:17:53.304Z,100815.67
2019-02-25T00:18:29.347Z,100817.88
2019-02-25T00:19:06.271Z,100831.19
2019-02-25T00:19:43.445Z,100831.19
2019-02-25T00:20:19.448Z,100824.26
2019-02-25T00:20:55.589Z,100827.89
2019-02-25T00:21:32.925Z,100827.89
2019-02-25T00:22:09.232Z,100828.28
2019-02-25T00:22:45.886Z,100828.28
2019-02-25T00:23:22.195Z,100834.88
2019-02-25T00:23:59.045Z,100834.88
2019-02-25T00:24:35.346Z,100835.25
2019-02-25T00:25:12.128Z,100832.30
2019-02-25T00:25:50.580Z,100832.30
2019-02-25T00:26:27.535Z,100831.80
2019-02-25T00:27:04.622Z,100831.80
2019-02-25T00:27:41.647Z,100834.80
2019-02-25T00:28:21.981Z,100834.80
2019-02-25T00:28:59.971Z,100838.34
2019-02-25T00:29:39.038Z,100836.45
2019-02-25T00:30:15.324Z,100835.64
2019-02-25T00:30:51.552Z,100825.42
2019-02-25T00:31:28.371Z,100831.84
2019-02-25T00:32:05.403Z,100831.84
2019-02-25T00:32:42.414Z,100833.73
2019-02-25T00:33:19.578Z,100824.83
2019-02-25T00:33:56.801Z,100826.44
2019-02-25T00:34:35.612Z,100832.89
2019-02-25T00:35:13.355Z,100834.50
2019-02-25T00:35:51.534Z,100838.25
2019-02-25T00:36:27.596Z,100838.25
2019-02-25T00:37:04.963Z,100843.06
2019-02-25T00:37:44.602Z,100844.59
2019-02-25T00:38:21.966Z,100844.59
2019-02-25T00:38:58.961Z,100837.33
2019-02-25T00:39:35.704Z,100843.70
2019-02-25T00:40:12.734Z,100842.09
2019-02-25T00:40:51.563Z,100845.78
2019-02-25T00:41:28.350Z,100847.38
2019-02-25T00:42:07.796Z,100852.23
2019-02-25T00:42:44.281Z,100852.23
2019-02-25T00:43:20.849Z,100847.58
2019-02-25T00:43:57.190Z,100848.34
2019-02-25T00:44:34.008Z,100848.34
2019-02-25T00:45:10.779Z,100846.14
2019-02-25T00:45:46.909Z,100851.72
2019-02-25T00:46:23.077Z,100851.72
2019-02-25T00:46:59.603Z,100843.10
2019-02-25T00:47:37.508Z,100848.08
2019-02-25T00:48:13.696Z,100848.08
2019-02-25T00:48:50.291Z,100855.88
2019-02-25T00:49:27.248Z,100855.88
2019-02-25T00:50:14.327Z,100851.52
2019-02-25T00:50:50.889Z,100851.52
2019-02-25T00:51:30.115Z,100855.23
2019-02-25T00:52:09.042Z,100856.70
2019-02-25T00:52:54.928Z,100856.70
2019-02-25T00:53:34.215Z,100861.80
2019-02-25T00:54:13.410Z,100861.95
2019-02-25T00:54:49.665Z,100861.91
2019-02-25T00:55:25.923Z,100861.91
2019-02-25T00:56:02.155Z,100863.31
2019-02-25T00:56:38.936Z,100863.31
2019-02-25T00:57:18.213Z,100851.69
2019-02-25T00:57:55.080Z,100863.25
2019-02-25T00:58:31.243Z,100854.37
2019-02-25T00:59:08.674Z,100854.37
2019-02-25T00:59:46.039Z,100862.66
2019-02-25T01:00:22.722Z,100860.45
2019-02-25T01:00:59.782Z,100860.45
2019-02-25T01:01:36.701Z,100861.45
2019-02-25T01:02:13.258Z,100861.45
2019-02-25T01:02:50.872Z,100857.64
2019-02-25T01:03:28.757Z,100857.64
2019-02-25T01:04:05.094Z,100858.67
2019-02-25T01:04:41.667Z,100858.67
2019-02-25T01:05:18.545Z,100858.35
2019-02-25T01:05:54.833Z,100858.00
2019-02-25T01:06:33.002Z,100863.11
2019-02-25T01:07:09.497Z,100853.08
2019-02-25T01:07:47.933Z,100853.08
2019-02-25T01:08:24.246Z,100855.33
2019-02-25T01:09:04.211Z,100855.33
2019-02-25T01:09:40.793Z,100867.08
2019-02-25T01:10:18.140Z,100865.62
2019-02-25T01:10:54.607Z,100868.22
2019-02-25T01:11:31.474Z,100867.61
2019-02-25T01:12:09.833Z,100872.92
2019-02-25T01:12:57.308Z,100874.22
2019-02-25T01:13:34.428Z,100869.06
2019-02-25T01:14:12.199Z,100870.55
2019-02-25T01:14:48.963Z,100877.21
2019-02-25T01:15:25.278Z,100876.84
2019-02-25T01:16:02.449Z,100878.94
2019-02-25T01:16:41.586Z,100879.97
2019-02-25T01:17:17.950Z,100870.73
2019-02-25T01:17:54.098Z,100876.09
2019-02-25T01:18:30.976Z,100877.39
2019-02-25T01:19:07.153Z,100881.39
2019-02-25T01:19:43.361Z,100878.06
2019-02-25T01:20:19.514Z,100878.01
2019-02-25T01:20:55.767Z,100884.42
2019-02-25T01:21:32.030Z,100883.84
2019-02-25T01:22:09.052Z,100885.13
2019-02-25T01:22:45.403Z,100884.33
2019-02-25T01:23:21.866Z,100884.58
2019-02-25T01:24:02.585Z,100879.95
2019-02-25T01:24:40.068Z,100882.61
2019-02-25T01:25:17.789Z,100881.50
2019-02-25T01:25:57.221Z,100886.58
2019-02-25T01:26:34.413Z,100887.08
2019-02-25T01:27:11.683Z,100890.03
2019-02-25T01:27:51.834Z,100891.33
2019-02-25T01:28:28.904Z,100891.27
2019-02-25T01:29:07.130Z,100896.94
2019-02-25T01:29:45.614Z,100899.31
2019-02-25T01:30:22.059Z,100895.98
2019-02-25T01:30:58.304Z,100898.02
2019-02-25T01:31:35.596Z,100901.95
2019-02-25T01:32:12.213Z,100897.83
2019-02-25T01:32:48.614Z,100892.89
2019-02-25T01:33:25.029Z,100902.04
2019-02-25T01:34:01.948Z,100898.22
2019-02-25T01:34:38.094Z,100899.69
2019-02-25T01:35:14.826Z,100899.31
2019-02-25T01:35:52.355Z,100901.41
2019-02-25T01:36:30.270Z,100901.89
2019-02-25T01:37:06.582Z,100903.77
2019-02-25T01:37:44.757Z,100904.78
2019-02-25T01:38:21.797Z,100903.60
2019-02-25T01:38:58.078Z,100905.38
2019-02-25T01:39:34.428Z,100903.16
2019-02-25T01:40:12.242Z,100902.28
2019-02-25T01:40:49.068Z,100902.39
2019-02-25T01:41:25.218Z,100904.27
2019-02-25T01:42:02.098Z,100903.64
2019-02-25T01:42:38.437Z,100901.16
2019-02-25T01:43:15.278Z,100907.09
2019-02-25T01:43:52.940Z,100908.55
2019-02-25T01:44:30.583Z,100901.62
2019-02-25T01:45:07.690Z,100901.20
2019-02-25T01:45:44.570Z,100908.23
2019-02-25T01:46:22.681Z,100907.13
2019-02-25T01:46:58.971Z,100906.56
2019-02-25T01:47:35.961Z,100904.89
2019-02-25T01:48:12.589Z,100903.45
2019-02-25T01:48:54.993Z,100906.06
2019-02-25T01:49:31.240Z,100906.58
2019-02-25T01:50:12.442Z,100902.23
2019-02-25T01:50:52.365Z,100905.95
2019-02-25T01:51:47.110Z,100907.16
2019-02-25T01:52:23.969Z,100909.64
2019-02-25T01:53:00.144Z,100906.44
2019-02-25T01:53:36.642Z,100910.75
2019-02-25T01:54:12.848Z,100911.23
2019-02-25T01:54:49.119Z,100911.72
2019-02-25T01:55:25.578Z,100911.09
2019-02-25T01:56:04.788Z,100905.27
2019-02-25T01:56:42.027Z,100910.22
2019-02-25T01:57:18.357Z,100910.12
2019-02-25T01:57:55.024Z,100909.48
2019-02-25T01:58:31.199Z,100909.98
2019-02-25T01:59:07.287Z,100912.34
2019-02-25T01:59:43.424Z,100906.52
2019-02-25T02:00:19.634Z,100911.55
2019-02-25T02:00:55.755Z,100909.80
2019-02-25T02:01:31.886Z,100906.45
2019-02-25T02:02:08.139Z,100905.81
2019-02-25T02:02:44.247Z,100906.06
2019-02-25T02:03:20.443Z,100907.30
2019-02-25T02:03:56.658Z,100909.55
2019-02-25T02:04:32.967Z,100911.09
2019-02-25T02:05:09.367Z,100910.70
2019-02-25T02:05:45.545Z,100914.14
2019-02-25T02:06:21.663Z,100913.50
2019-02-25T02:06:57.710Z,100907.45
2019-02-25T02:07:33.830Z,100908.73
2019-02-25T02:08:09.998Z,100910.02
2019-02-25T02:08:46.431Z,100909.14
2019-02-25T02:09:22.456Z,100901.94
2019-02-25T02:09:58.634Z,100912.42
2019-02-25T02:10:34.764Z,100908.50
2019-02-25T02:11:12.147Z,100906.58
2019-02-25T02:11:48.448Z,100910.05
2019-02-25T02:12:25.377Z,100908.60
2019-02-25T02:13:01.501Z,100909.08
2019-02-25T02:13:37.634Z,100909.88
2019-02-25T02:14:14.055Z,100912.92
2019-02-25T02:14:50.599Z,100909.64
2019-02-25T02:15:27.290Z,100913.08
2019-02-25T02:16:04.043Z,100909.23
2019-02-25T02:16:40.415Z,100909.48
2019-02-25T02:17:17.120Z,100915.63
2019-02-25T02:17:53.186Z,100908.22
2019-02-25T02:18:29.389Z,100911.84
2019-02-25T02:19:06.415Z,100911.52
2019-02-25T02:19:42.569Z,100906.80
2019-02-25T02:20:19.686Z,100910.80
2019-02-25T02:20:55.986Z,100906.86
2019-02-25T02:21:33.058Z,100907.58
2019-02-25T02:22:10.082Z,100903.73
2019-02-25T02:22:46.497Z,100907.81
2019-02-25T02:23:22.583Z,100905.09
2019-02-25T02:23:58.841Z,100911.48
2019-02-25T02:24:35.212Z,100905.42
2019-02-25T02:25:11.531Z,100904.13
2019-02-25T02:25:47.646Z,100900.27
2019-02-25T02:26:24.647Z,100902.20
2019-02-25T02:27:01.603Z,100895.89
2019-02-25T02:27:38.146Z,100900.22
2019-02-25T02:28:14.231Z,100907.02
2019-02-25T02:28:50.827Z,100907.17
2019-02-25T02:29:26.915Z,100908.95
2019-02-25T02:30:04.091Z,100907.73
2019-02-25T02:30:40.307Z,100896.76
2019-02-25T02:31:17.111Z,100894.84
2019-02-25T02:31:54.017Z,100901.80
2019-02-25T02:32:30.196Z,100905.79
2019-02-25T02:33:06.453Z,100905.61
2019-02-25T02:33:43.424Z,100903.39
2019-02-25T02:34:19.599Z,100904.61
2019-02-25T02:34:56.419Z,100904.19
2019-02-25T02:35:32.583Z,100905.23
2019-02-25T02:36:11.535Z,100908.98
2019-02-25T02:36:47.289Z,100907.77
2019-02-25T02:37:23.475Z,100903.92
2019-02-25T02:37:59.754Z,100906.80
2019-02-25T02:38:36.762Z,100907.03
2019-02-25T02:39:13.726Z,100905.43
2019-02-25T02:39:49.864Z,100900.88
2019-02-25T02:40:26.744Z,100900.16
2019-02-25T02:41:02.993Z,100904.25
2019-02-25T02:42:13.550Z,100907.03
2019-02-25T02:42:52.398Z,100901.75
2019-02-25T02:43:28.818Z,100905.75
2019-02-25T02:44:05.879Z,100901.01
2019-02-25T02:44:42.215Z,100903.27
2019-02-25T02:45:22.430Z,100899.79
2019-02-25T02:46:03.543Z,100902.09
2019-02-25T02:47:14.335Z,100904.48
2019-02-25T02:48:05.503Z,100900.55
2019-02-25T02:48:51.556Z,100903.17
2019-02-25T02:49:28.424Z,100906.64
2019-02-25T02:50:04.662Z,100902.86
2019-02-25T02:50:41.107Z,100900.84
2019-02-25T02:51:18.090Z,100901.77
2019-02-25T02:51:54.864Z,100906.33
2019-02-25T02:52:31.187Z,100903.38
2019-02-25T02:53:07.662Z,100902.01
2019-02-25T02:53:44.021Z,100895.89
2019-02-25T02:54:20.127Z,100898.39
2019-02-25T02:54:57.046Z,100901.34
2019-02-25T02:55:34.182Z,100897.49
2019-02-25T02:56:10.717Z,100899.36
2019-02-25T02:56:47.534Z,100894.14
2019-02-25T02:57:23.831Z,100899.16
2019-02-25T02:58:00.493Z,100894.41
2019-02-25T02:58:37.392Z,100900.47
2019-02-25T02:59:14.410Z,100900.37
2019-02-25T02:59:50.814Z,100896.98
2019-02-25T03:00:27.505Z,100894.48
2019-02-25T03:01:04.367Z,100894.98
2019-02-25T03:01:40.623Z,100891.13
2019-02-25T03:02:16.664Z,100894.31
2019-02-25T03:02:52.792Z,100900.34
2019-02-25T03:03:29.532Z,100899.20
2019-02-25T03:04:06.341Z,100898.00
2019-02-25T03:04:42.440Z,100894.95
2019-02-25T03:05:19.555Z,100893.25
2019-02-25T03:05:55.910Z,100895.08
2019-02-25T03:06:32.066Z,100892.48
2019-02-25T03:07:08.766Z,100892.61
2019-02-25T03:07:45.602Z,100897.66
2019-02-25T03:08:22.328Z,100891.30
2019-02-25T03:08:58.457Z,100895.30
2019-02-25T03:09:34.786Z,100898.83
2019-02-25T03:10:12.222Z,100892.00
2019-02-25T03:10:48.409Z,100895.99
2019-02-25T03:11:24.588Z,100893.83
2019-02-25T03:12:01.319Z,100892.93
2019-02-25T03:12:37.768Z,100889.06
2019-02-25T03:13:14.088Z,100891.23
2019-02-25T03:13:50.609Z,100888.63
2019-02-25T03:14:26.906Z,100889.09
2019-02-25T03:15:03.162Z,100887.05
2019-02-25T03:15:39.685Z,100882.62
2019-02-25T03:16:16.024Z,100886.65
2019-02-25T03:16:52.546Z,100884.38
2019-02-25T03:17:29.501Z,100885.28
2019-02-25T03:18:05.949Z,100883.17
2019-02-25T03:18:42.286Z,100876.48
2019-02-25T03:19:18.729Z,100880.34
2019-02-25T03:19:55.069Z,100879.90
2019-02-25T03:20:31.608Z,100883.92
2019-02-25T03:21:08.345Z,100880.86
2019-02-25T03:21:44.539Z,100885.17
2019-02-25T03:22:21.633Z,100881.31
2019-02-25T03:22:57.763Z,100880.64
2019-02-25T03:23:33.806Z,100878.17
2019-02-25T03:24:10.087Z,100876.66
2019-02-25T03:24:47.132Z,100879.77
2019-02-25T03:25:23.476Z,100875.58
2019-02-25T03:26:00.282Z,100874.94
2019-02-25T03:26:36.679Z,100875.73
2019-02-25T03:27:13.426Z,100874.95
2019-02-25T03:27:49.461Z,100878.30
2019-02-25T03:28:25.706Z,100877.52
2019-02-25T03:29:02.924Z,100875.97
2019-02-25T03:29:39.190Z,100877.12
2019-02-25T03:30:17.624Z,100876.11
2019-02-25T03:30:54.394Z,100871.56
2019-02-25T03:31:30.709Z,100877.03
2019-02-25T03:32:07.268Z,100872.75
2019-02-25T03:32:43.765Z,100873.44
2019-02-25T03:33:20.490Z,100872.52
2019-02-25T03:33:56.766Z,100877.57
2019-02-25T03:34:33.608Z,100867.67
2019-02-25T03:35:10.495Z,100875.52
2019-02-25T03:35:46.891Z,100873.25
2019-02-25T03:36:22.978Z,100875.07
2019-02-25T03:36:59.237Z,100865.97
2019-02-25T03:37:35.471Z,100873.28
2019-02-25T03:38:12.299Z,100868.05
2019-02-25T03:38:48.661Z,100872.83
2019-02-25T03:39:24.784Z,100874.65
2019-02-25T03:40:01.626Z,100872.26
2019-02-25T03:40:38.643Z,100866.91
2019-02-25T03:41:14.786Z,100869.87
2019-02-25T03:41:51.449Z,100871.47
2019-02-25T03:42:27.576Z,100873.52
2019-02-25T03:43:04.118Z,100872.38
2019-02-25T03:43:40.104Z,100871.80
2019-02-25T03:44:16.171Z,100870.78
2019-02-25T03:44:52.266Z,100866.69
2019-02-25T03:45:28.516Z,100862.35
2019-02-25T03:46:05.305Z,100866.91
2019-02-25T03:46:41.860Z,100866.45
2019-02-25T03:47:18.821Z,100864.17
2019-02-25T03:47:55.362Z,100863.04
2019-02-25T03:48:32.150Z,100865.55
2019-02-25T03:49:08.373Z,100868.95
2019-02-25T03:49:44.849Z,100864.97
2019-02-25T03:50:21.481Z,100864.86
2019-02-25T03:50:58.326Z,100864.17
2019-02-25T03:51:34.767Z,100865.09
2019-02-25T03:52:11.798Z,100853.95
2019-02-25T03:52:48.245Z,100858.73
2019-02-25T03:53:24.584Z,100856.45
2019-02-25T03:54:01.298Z,100854.52
2019-02-25T03:54:37.976Z,100857.37
2019-02-25T03:55:16.265Z,100854.29
2019-02-25T03:55:53.379Z,100855.88
2019-02-25T03:56:29.795Z,100853.50
2019-02-25T03:57:06.441Z,100848.25
2019-02-25T03:57:42.596Z,100855.09
2019-02-25T03:58:18.781Z,100856.91
2019-02-25T03:58:54.921Z,100852.81
2019-02-25T03:59:31.250Z,100858.95
2019-02-25T04:00:09.462Z,100852.92
2019-02-25T04:00:46.082Z,100855.11
2019-02-25T04:01:23.408Z,100852.38
2019-02-25T04:02:00.373Z,100845.77
2019-02-25T04:02:36.605Z,100851.89
2019-02-25T04:03:12.785Z,100847.70
2019-02-25T04:03:49.253Z,100852.83
2019-02-25T04:04:25.796Z,100847.02
2019-02-25T04:05:02.821Z,100844.73
2019-02-25T04:05:39.393Z,100850.57
2019-02-25T04:06:15.534Z,100851.02
2019-02-25T04:06:51.653Z,100851.02
2019-02-25T04:07:28.569Z,100851.02
2019-02-25T04:08:05.102Z,100847.37
2019-02-25T04:08:41.888Z,100848.52
2019-02-25T04:09:18.325Z,100849.09
2019-02-25T04:09:54.673Z,100848.63
2019-02-25T04:10:30.897Z,100850.11
2019-02-25T04:11:07.227Z,100847.35
2019-02-25T04:11:43.880Z,100846.92
2019-02-25T04:12:20.015Z,100849.52
2019-02-25T04:12:56.146Z,100842.58
2019-02-25T04:13:32.419Z,100842.69
2019-02-25T04:14:08.754Z,100838.25
2019-02-25T04:14:44.991Z,100844.86
2019-02-25T04:15:24.335Z,100838.70
2019-02-25T04:16:00.597Z,100839.64
2019-02-25T04:16:36.874Z,100838.02
2019-02-25T04:17:13.033Z,100833.11
2019-02-25T04:17:49.231Z,100840.52
2019-02-25T04:18:25.487Z,100833.11
2019-02-25T04:19:01.506Z,100836.33
2019-02-25T04:19:37.530Z,100836.90
2019-02-25T04:20:15.192Z,100830.64
2019-02-25T04:20:51.519Z,100826.19
2019-02-25T04:21:27.809Z,100828.01
2019-02-25T04:22:03.912Z,100825.28
2019-02-25T04:22:40.151Z,100826.19
2019-02-25T04:23:16.438Z,100826.30
2019-02-25T04:23:52.580Z,100823.89
2019-02-25T04:24:28.891Z,100826.63
2019-02-25T04:25:05.049Z,100822.53
2019-02-25T04:25:41.392Z,100819.56
2019-02-25T04:26:17.669Z,100825.26
2019-02-25T04:26:55.600Z,100824.56
2019-02-25T04:27:31.552Z,100820.69
2019-02-25T04:28:07.897Z,100814.53
2019-02-25T04:28:44.062Z,100818.28
2019-02-25T04:29:20.192Z,100817.51
2019-02-25T04:29:56.362Z,100817.27
2019-02-25T04:30:32.573Z,100814.53
2019-02-25T04:31:08.685Z,100810.42
2019-02-25T04:31:44.730Z,100814.18
2019-02-25T04:32:21.769Z,100811.80
2019-02-25T04:32:58.234Z,100814.28
2019-02-25T04:33:34.531Z,100809.73
2019-02-25T04:34:10.800Z,100801.66
2019-02-25T04:34:47.051Z,100802.89
2019-02-25T04:35:23.283Z,100805.06
2019-02-25T04:35:59.295Z,100804.61
2019-02-25T04:36:35.518Z,100800.16
2019-02-25T04:37:11.855Z,100804.04
2019-02-25T04:37:47.938Z,100796.08
2019-02-25T04:38:24.150Z,100791.75
2019-02-25T04:39:00.431Z,100787.75
2019-02-25T04:39:36.747Z,100790.39
2019-02-25T04:40:13.970Z,100786.75
2019-02-25T04:40:50.358Z,100788.36
2019-02-25T04:41:26.588Z,100791.79
2019-02-25T04:42:02.809Z,100793.47
2019-02-25T04:42:39.027Z,100787.43
2019-02-25T04:43:15.240Z,100788.25
2019-02-25T04:43:51.527Z,100792.80
2019-02-25T04:44:27.857Z,100792.47
2019-02-25T04:45:04.108Z,100792.91
2019-02-25T04:45:40.458Z,100785.39
2019-02-25T04:46:16.527Z,100786.86
2019-02-25T04:46:52.539Z,100782.41
2019-02-25T04:47:28.840Z,100780.37
2019-02-25T04:48:05.107Z,100774.20
2019-02-25T04:48:41.394Z,100778.53
2019-02-25T04:49:17.676Z,100781.36
2019-02-25T04:49:53.894Z,100775.90
2019-02-25T04:50:30.081Z,100778.28
2019-02-25T04:51:06.422Z,100773.16
2019-02-25T04:51:42.533Z,100777.61
2019-02-25T04:52:18.790Z,100769.18
2019-02-25T04:52:54.902Z,100768.27
2019-02-25T04:53:31.002Z,100768.28
2019-02-25T04:54:07.173Z,100766.58
2019-02-25T04:54:43.274Z,100768.04
2019-02-25T04:55:19.584Z,100764.16
2019-02-25T04:55:55.899Z,100765.05
2019-02-25T04:56:32.067Z,100763.47
2019-02-25T04:57:08.308Z,100758.22
2019-02-25T04:57:44.586Z,100754.38
2019-02-25T04:58:20.735Z,100753.23
2019-02-25T04:58:56.855Z,100746.39
2019-02-25T04:59:33.011Z,100746.39
2019-02-25T05:00:13.432Z,100745.81
2019-02-25T05:00:49.568Z,100747.28
2019-02-25T05:01:25.831Z,100749.35
2019-02-25T05:02:02.383Z,100746.02
2019-02-25T05:02:38.728Z,100740.64
2019-02-25T05:03:15.001Z,100746.81
2019-02-25T05:03:51.268Z,100743.73
2019-02-25T05:04:27.290Z,100744.52
2019-02-25T05:05:03.540Z,100739.84
2019-02-25T05:05:39.681Z,100736.09
2019-02-25T05:06:15.873Z,100735.39
2019-02-25T05:06:51.983Z,100734.28
2019-02-25T05:07:28.266Z,100730.40
2019-02-25T05:08:04.427Z,100732.66
2019-02-25T05:08:40.703Z,100731.55
2019-02-25T05:09:17.014Z,100726.95
2019-02-25T05:09:53.285Z,100730.14
2019-02-25T05:10:29.522Z,100735.16
2019-02-25T05:11:05.588Z,100728.99
2019-02-25T05:11:41.870Z,100724.31
2019-02-25T05:12:17.939Z,100726.34
2019-02-25T05:12:59.113Z,100725.07
2019-02-25T05:13:35.365Z,100722.78
2019-02-25T05:14:11.467Z,100720.92
2019-02-25T05:14:47.514Z,100721.59
2019-02-25T05:15:24.907Z,100716.38
2019-02-25T05:16:01.107Z,100716.81
2019-02-25T05:16:37.227Z,100709.05
2019-02-25T05:17:13.444Z,100712.45
2019-02-25T05:17:49.686Z,100718.14
2019-02-25T05:18:25.880Z,100712.88
2019-02-25T05:19:01.966Z,100714.70
2019-02-25T05:19:38.154Z,100713.98
2019-02-25T05:20:14.412Z,100714.46
2019-02-25T05:20:50.702Z,100711.02
2019-02-25T05:21:26.953Z,100705.98
2019-02-25T05:22:03.112Z,100707.34
2019-02-25T05:22:39.382Z,100706.47
2019-02-25T05:23:15.666Z,100701.01
2019-02-25T05:23:51.848Z,100701.80
2019-02-25T05:24:28.035Z,100708.42
2019-02-25T05:25:04.213Z,100698.53
2019-02-25T05:25:40.447Z,100696.16
2019-02-25T05:26:16.707Z,100698.98
2019-02-25T05:26:52.912Z,100695.53
2019-02-25T05:27:29.095Z,100694.83
2019-02-25T05:28:05.164Z,100694.15
2019-02-25T05:28:41.438Z,100689.11
2019-02-25T05:29:17.499Z,100687.29
2019-02-25T05:29:53.673Z,100687.75
2019-02-25T05:30:29.779Z,100691.83
2019-02-25T05:31:06.086Z,100684.06
2019-02-25T05:31:42.264Z,100681.54
2019-02-25T05:32:18.482Z,100679.16
2019-02-25T05:32:54.691Z,100679.73
2019-02-25T05:33:30.952Z,100675.19
2019-02-25T05:34:07.084Z,100672.31
2019-02-25T05:34:43.298Z,100678.01
2019-02-25T05:35:19.427Z,100674.91
2019-02-25T05:35:55.540Z,100671.25
2019-02-25T05:36:31.825Z,100676.94
2019-02-25T05:37:08.102Z,100676.23
2019-02-25T05:37:44.250Z,100673.93
2019-02-25T05:38:20.511Z,100670.39
2019-02-25T05:38:58.681Z,100666.86
2019-02-25T05:39:34.569Z,100670.48
2019-02-25T05:40:13.555Z,100672.06
2019-02-25T05:40:49.938Z,100669.33
2019-02-25T05:41:26.186Z,100659.88
2019-02-25T05:42:02.351Z,100659.09
2019-02-25T05:42:38.535Z,100663.20
2019-02-25T05:43:17.765Z,100662.98
2019-02-25T05:43:54.021Z,100652.95
2019-02-25T05:44:33.692Z,100654.33
2019-02-25T05:45:10.107Z,100648.84
2019-02-25T05:45:46.233Z,100647.48
2019-02-25T05:46:22.489Z,100648.84
2019-02-25T05:47:01.815Z,100652.02
2019-02-25T05:47:38.145Z,100648.71
2019-02-25T05:48:14.484Z,100651.59
2019-02-25T05:48:57.001Z,100645.23
2019-02-25T05:49:33.153Z,100649.48
2019-02-25T05:50:14.822Z,100639.95
2019-02-25T05:50:52.357Z,100642.77
2019-02-25T05:51:28.585Z,100639.12
2019-02-25T05:52:04.969Z,100643.37
2019-02-25T05:52:41.243Z,100642.93
2019-02-25T05:53:19.021Z,100635.73
2019-02-25T05:53:56.437Z,100631.62
2019-02-25T05:54:33.938Z,100633.51
2019-02-25T05:55:15.602Z,100637.23
2019-02-25T05:55:54.601Z,100630.18
2019-02-25T05:57:14.480Z,100630.31
2019-02-25T06:00:21.528Z,100636.09
2019-02-25T06:01:15.354Z,100628.15
2019-02-25T06:04:26.547Z,100621.36
2019-02-25T06:05:03.808Z,100618.09
2019-02-25T06:06:58.644Z,100613.41
2019-02-25T06:07:53.757Z,100611.80
2019-02-25T06:09:21.348Z,100607.00
2019-02-25T06:10:37.375Z,100607.13
2019-02-25T06:11:41.812Z,100600.50
2019-02-25T06:14:13.174Z,100593.42
2019-02-25T06:15:02.886Z,100586.78
2019-02-25T06:16:31.001Z,100579.16
2019-02-25T06:17:57.094Z,100581.09
2019-02-25T06:20:11.168Z,100579.16
2019-02-25T06:21:39.728Z,100576.08
2019-02-25T06:22:17.813Z,100579.61
2019-02-25T06:23:10.837Z,100569.46
2019-02-25T06:24:31.551Z,100569.91
2019-02-25T06:26:48.019Z,100563.96
2019-02-25T06:27:32.087Z,100565.09
2019-02-25T06:28:30.506Z,100560.30
2019-02-25T06:30:26.000Z,100563.69
2019-02-25T06:31:32.138Z,100557.17
2019-02-25T06:33:28.812Z,100549.53
2019-02-25T06:34:42.122Z,100550.16
2019-02-25T06:36:31.501Z,100546.20
2019-02-25T06:37:11.492Z,100544.25
2019-02-25T06:39:15.224Z,100537.05
2019-02-25T06:41:39.806Z,100534.95
2019-02-25T06:42:44.355Z,100531.28
2019-02-25T06:45:00.436Z,100525.18
2019-02-25T06:46:09.576Z,100527.92
2019-02-25T06:47:14.490Z,100528.77
2019-02-25T06:48:06.133Z,100528.84
2019-02-25T06:53:11.171Z,100523.57
2019-02-25T06:55:25.189Z,100520.40
2019-02-25T06:56:03.149Z,100510.84
2019-02-25T06:59:46.464Z,100512.44
2019-02-25T07:02:23.190Z,100506.88
2019-02-25T07:03:21.155Z,100503.13
2019-02-25T07:09:16.941Z,100489.75
2019-02-25T07:10:38.671Z,100489.31
2019-02-25T07:11:50.652Z,100494.29
2019-02-25T07:12:48.623Z,100491.50
2019-02-25T07:14:19.694Z,100501.63
2019-02-25T07:15:28.021Z,100495.80
2019-02-25T07:16:32.501Z,100499.49
2019-02-25T07:17:36.946Z,100489.09
2019-02-25T07:20:15.023Z,100491.84
2019-02-25T07:21:28.495Z,100490.61
2019-02-25T07:23:13.664Z,100490.05
2019-02-25T07:24:10.002Z,100484.35
2019-02-25T07:25:09.292Z,100484.63
2019-02-25T07:27:45.199Z,100488.45
2019-02-25T07:28:48.183Z,100485.45
2019-02-25T07:29:49.937Z,100483.07
2019-02-25T07:31:06.574Z,100480.47
2019-02-25T07:32:36.268Z,100475.22
2019-02-25T07:33:36.301Z,100468.88
2019-02-25T07:34:51.666Z,100467.16
2019-02-25T07:35:53.384Z,100469.53
2019-02-25T07:38:24.072Z,100470.11
2019-02-25T07:39:52.960Z,100465.87
2019-02-25T07:41:02.248Z,100465.38
2019-02-25T07:42:18.595Z,100466.36
2019-02-25T07:44:29.383Z,100475.84
2019-02-25T07:47:38.245Z,100465.11
2019-02-25T07:48:32.859Z,100458.55
2019-02-25T07:49:42.922Z,100458.13
2019-02-25T07:50:33.716Z,100463.89
2019-02-25T07:52:01.517Z,100462.30
2019-02-25T07:53:17.462Z,100458.25
2019-02-25T07:54:38.377Z,100461.02
2019-02-25T07:57:26.640Z,100457.11
2019-02-25T08:00:57.277Z,100457.02
2019-02-25T08:03:01.453Z,100454.42
2019-02-25T08:10:26.727Z,100456.15
2019-02-25T08:14:35.202Z,100450.13
2019-02-25T08:15:48.981Z,100449.33
2019-02-25T08:25:04.409Z,100442.02
2019-02-25T08:26:27.545Z,100435.66
2019-02-25T08:30:38.399Z,100439.12
2019-02-25T08:33:40.853Z,100434.34
2019-02-25T08:34:47.180Z,100427.76
2019-02-25T08:36:23.819Z,100426.72
2019-02-25T08:38:09.823Z,100424.00
2019-02-25T08:39:22.807Z,100419.78
2019-02-25T08:40:56.501Z,100427.50
2019-02-25T08:43:17.169Z,100411.02
2019-02-25T08:44:29.818Z,100405.67
2019-02-25T08:45:51.747Z,100406.05
2019-02-25T08:47:03.734Z,100415.25
2019-02-25T08:48:13.859Z,100418.88
2019-02-25T08:48:57.767Z,100418.75
2019-02-25T08:50:01.291Z,100420.23
2019-02-25T08:50:41.415Z,100415.02
2019-02-25T08:51:21.470Z,100418.20
2019-02-25T08:52:02.156Z,100419.34
2019-02-25T08:52:40.706Z,100413.20
2019-02-25T08:53:21.726Z,100413.20
2019-02-25T08:54:11.150Z,100413.77
2019-02-25T08:55:38.507Z,100412.51
2019-02-25T08:56:29.075Z,100412.84
2019-02-25T08:57:30.387Z,100411.48
2019-02-25T08:59:48.509Z,100415.02
2019-02-25T09:01:35.901Z,100415.35
2019-02-25T09:02:52.385Z,100414.33
2019-02-25T09:03:47.068Z,100414.33